METAR v bližini

 

LJMB - Maribor Edvarda Rusjana, Slovenia
Oddaljenost od postaje: SV 30,9km
Podatki zajeti: 24/01/2020 03:00
Jasno
Jasno
 Veter iz smeri JJV
Veter: JJV 7 km/h
Temperatura: -2°C
Občutek mraza zaradi vetra: -6°C
Rosišče: -4°C
Vlažnost: 86%
Tlak: 1028 hPa
Oblačnost: Jasno
Vidljivost: 6 km
2020/01/24 02:00 LJMB 240200Z AUTO 15004KT 6000 NCD M02/M04 Q1028
LJLJ - Ljubljana Brnik, Slovenia
Oddaljenost od postaje: S 103km
Podatki zajeti: 24/01/2020 03:00
Jasno
Jasno
 Veter iz smeri spremenljiv
Veter: spremenljiv 2 km/h
Temperatura: -7°C
Rosišče: -8°C
Vlažnost: 93%
Tlak: 1028 hPa
Stanje: Jasno
Vidljivost: večja od 10 km
2020/01/24 02:00 LJLJ 240200Z VRB01KT CAVOK M07/M08 Q1028 NOSIG
 
LJPZ - Portorož, Slovenia
Oddaljenost od postaje: SSZ 224km
Podatki zajeti: 24/01/2020 03:00
Jasno
Jasno
 Veter iz smeri VJV
Veter: VJV 15 km/h
Temperatura: -1°C
Občutek mraza zaradi vetra: -6°C
Rosišče: -3°C
Vlažnost: 86%
Tlak: 1028 hPa
Oblačnost: Jasno
Vidljivost: 10 km
2020/01/24 02:00 LJPZ 240200Z AUTO 12008KT 9999 NCD M01/M03 Q1028
LJCE - Cerklje, Slovenia
Oddaljenost od postaje: VSV 83,9km
Podatki zajeti: 24/01/2020 03:00
Megla, zmrzuje, Oblačno
Megla, zmrzuje, Oblačno
 Veter iz smeri spremenljiv
Veter: spremenljiv 4 km/h
Temperatura: -3°C
Rosišče: -4°C
Vlažnost: 93%
Tlak: 1030 hPa
Stanje: Megla, zmrzuje
Oblačnost: Oblačno
Vidljivost: 0 km
Podrobnosti o oblakih: Oblačno 61 m
2020/01/24 02:00 LJCE 240200Z AUTO VRB02KT 0100 R09/0350 FZFG VV002 M03/M04 Q1030
 
LOWG - Graz, Austria
Oddaljenost od postaje: SSZ 99,6km
Podatki zajeti: 24/01/2020 03:20
Megla, zmrzuje, Oblačno
Megla, zmrzuje, Oblačno
 Veter iz smeri spremenljiv
Veter: spremenljiv 2 km/h
Temperatura: -5°C
Rosišče: -6°C
Vlažnost: 93%
Tlak: 1027 hPa
Stanje: Megla, zmrzuje
Oblačnost: Oblačno
Vidljivost: 0 km
Podrobnosti o oblakih: Oblačno 30 m
2020/01/24 02:20 LOWG 240220Z AUTO VRB01KT 0450 R17/0550N R35/0550N FZFG OVC001 M05/M06 Q1027
LOWK - Klagenfurt, Austria
Oddaljenost od postaje: SZ 121km
Podatki zajeti: 24/01/2020 03:20
Delno oblačno
Delno oblačno
 Veter iz smeri ZSZ
Veter: ZSZ 7 km/h
Temperatura: -6°C
Občutek mraza zaradi vetra: -10°C
Rosišče: -8°C
Vlažnost: 86%
Tlak: 1027 hPa
Oblačnost: Delno oblačno
Vidljivost: 10 km
2020/01/24 02:20 LOWK 240220Z AUTO 30004KT 9999 NSC M06/M08 Q1027
 
LDRI - Rijeka, Croatia
Oddaljenost od postaje: SZ 243km
Podatki zajeti: 24/01/2020 03:00
Jasno
Jasno
 Veter iz smeri spremenljiv
Veter: spremenljiv 4 km/h
Temperatura: 5°C
Rosišče: -2°C
Vlažnost: 61%
Tlak: 1027 hPa
Stanje: Jasno
Vidljivost: večja od 10 km
2020/01/24 02:00 LDRI 240200Z VRB02KT CAVOK 05/M02 Q1027
LIPQ - Ronchi, Italy
Oddaljenost od postaje: VJV 224km
Podatki zajeti: 24/01/2020 03:20
Jasno
Jasno
 Veter iz smeri SSV
Veter: SSV 7 km/h
Temperatura: -2°C
Občutek mraza zaradi vetra: -6°C
Rosišče: -3°C
Vlažnost: 93%
Tlak: 1028 hPa
Oblačnost: Jasno
Vidljivost: 10 km
2020/01/24 02:20 LIPQ 240220Z AUTO 02004KT 9999 NCD M02/M03 Q1028
 
LDZA - Zagreb, Croatia
Oddaljenost od postaje: JJV 143km
Podatki zajeti: 24/01/2020 03:30
Meglice, Oblačno
Meglice, Oblačno
 Veter iz smeri calm
Veter: Mirno
Temperatura: -2°C
Rosišče: -3°C
Vlažnost: 93%
Tlak: 1030 hPa
Stanje: Meglice
Oblačnost: Oblačno
Vidljivost: 4 km
Podrobnosti o oblakih: Rahlo oblačno 61 m
Oblačno 366 m
2020/01/24 02:30 LDZA 240230Z 00000KT 4000 BR FEW002 OVC012 M02/M03 Q1030 NOSIG
LIVT - Trieste, Italy
Oddaljenost od postaje: ZSZ 250km
Podatki zajeti: 23/01/2020 18:55
Ni posodobljen
Jasno
Jasno
 Veter iz smeri spremenljiv
Veter: spremenljiv 0 km/h
Temperatura: 7°C
Rosišče: -3°C
Vlažnost: 49%
Tlak: 1029 hPa
Stanje: Jasno
Vidljivost: večja od 10 km
2020/01/23 17:55 LIVT 231755Z /////KT CAVOK 07/M03 Q1029 RMK SKC QUK / QUL / VIS MAR 20 KM VIS MIN 9999
 
LIPA - Aviano, Italy
Oddaljenost od postaje: S 310km
Podatki zajeti: 23/01/2020 21:55
Ni posodobljen
Jasno
Jasno
 Veter iz smeri SSV
Veter: SSV 7 km/h
Temperatura: -1°C
Občutek mraza zaradi vetra: -4°C
Rosišče: -2°C
Vlažnost: 93%
Tlak: 1029 hPa
Stanje: Jasno
Vidljivost: večja od 10 km
2020/01/23 20:55 LIPA 232055Z 02004KT CAVOK M01/M02 Q1029 RMK SKC VIS MIN 9999 WIND THR05 /////KT WIND THR23 /////KT A3040 BLU
LDPL - Pula, Croatia
Oddaljenost od postaje: SSV 304km
Podatki zajeti: 24/01/2020 03:30
Jasno
Jasno
 Veter iz smeri SSV
Veter: SSV 6 km/h
Temperatura: 3°C
Rosišče: -2°C
Vlažnost: 70%
Tlak: 1027 hPa
Stanje: Jasno
Vidljivost: večja od 10 km
2020/01/24 02:30 LDPL 240230Z 02003KT 360V070 CAVOK 03/M02 Q1027